sensor_id;sensor_type;location;lat;lon;timestamp;P1;durP1;ratioP1;P2;durP2;ratioP2
22357;SDS011;11346;50.150;8.150;2022-11-15T00:01:38;20.97;;;10.33;;
22357;SDS011;11346;50.150;8.150;2022-11-15T00:04:05;23.23;;;11.47;;
22357;SDS011;11346;50.150;8.150;2022-11-15T00:06:32;12.73;;;8.50;;
22357;SDS011;11346;50.150;8.150;2022-11-15T00:09:00;15.50;;;10.00;;
22357;SDS011;11346;50.150;8.150;2022-11-15T00:11:27;18.67;;;11.23;;
22357;SDS011;11346;50.150;8.150;2022-11-15T00:13:54;18.53;;;10.60;;
22357;SDS011;11346;50.150;8.150;2022-11-15T00:16:21;19.93;;;10.20;;
22357;SDS011;11346;50.150;8.150;2022-11-15T00:18:50;18.40;;;11.00;;
22357;SDS011;11346;50.150;8.150;2022-11-15T00:21:17;16.07;;;9.63;;
22357;SDS011;11346;50.150;8.150;2022-11-15T00:23:44;19.87;;;11.00;;
22357;SDS011;11346;50.150;8.150;2022-11-15T00:26:12;17.00;;;9.23;;
22357;SDS011;11346;50.150;8.150;2022-11-15T00:28:40;20.53;;;10.90;;
22357;SDS011;11346;50.150;8.150;2022-11-15T00:31:08;11.47;;;6.03;;
22357;SDS011;11346;50.150;8.150;2022-11-15T00:33:35;17.07;;;10.10;;
22357;SDS011;11346;50.150;8.150;2022-11-15T00:36:04;19.10;;;11.07;;
22357;SDS011;11346;50.150;8.150;2022-11-15T00:38:32;17.87;;;9.27;;
22357;SDS011;11346;50.150;8.150;2022-11-15T00:40:59;20.23;;;10.90;;
22357;SDS011;11346;50.150;8.150;2022-11-15T00:43:26;20.00;;;11.20;;
22357;SDS011;11346;50.150;8.150;2022-11-15T00:45:53;21.07;;;11.50;;
22357;SDS011;11346;50.150;8.150;2022-11-15T00:48:21;18.50;;;10.20;;
22357;SDS011;11346;50.150;8.150;2022-11-15T00:50:48;21.40;;;10.63;;
22357;SDS011;11346;50.150;8.150;2022-11-15T00:53:16;18.17;;;11.03;;
22357;SDS011;11346;50.150;8.150;2022-11-15T00:55:43;18.10;;;10.57;;
22357;SDS011;11346;50.150;8.150;2022-11-15T00:58:10;17.27;;;10.73;;
22357;SDS011;11346;50.150;8.150;2022-11-15T01:00:37;16.23;;;10.07;;
22357;SDS011;11346;50.150;8.150;2022-11-15T01:03:04;17.97;;;10.83;;
22357;SDS011;11346;50.150;8.150;2022-11-15T01:05:31;18.57;;;10.43;;
22357;SDS011;11346;50.150;8.150;2022-11-15T01:07:58;16.13;;;9.47;;
22357;SDS011;11346;50.150;8.150;2022-11-15T01:10:27;16.70;;;9.80;;
22357;SDS011;11346;50.150;8.150;2022-11-15T01:12:54;17.63;;;10.27;;
22357;SDS011;11346;50.150;8.150;2022-11-15T01:15:21;17.83;;;9.90;;
22357;SDS011;11346;50.150;8.150;2022-11-15T01:17:48;17.23;;;9.67;;
22357;SDS011;11346;50.150;8.150;2022-11-15T01:20:15;14.27;;;9.10;;
22357;SDS011;11346;50.150;8.150;2022-11-15T01:22:42;18.67;;;10.23;;
22357;SDS011;11346;50.150;8.150;2022-11-15T01:25:09;14.07;;;9.37;;
22357;SDS011;11346;50.150;8.150;2022-11-15T01:27:38;15.00;;;9.13;;
22357;SDS011;11346;50.150;8.150;2022-11-15T01:30:05;17.80;;;9.43;;
22357;SDS011;11346;50.150;8.150;2022-11-15T01:32:33;16.33;;;9.30;;
22357;SDS011;11346;50.150;8.150;2022-11-15T01:35:00;15.23;;;9.37;;
22357;SDS011;11346;50.150;8.150;2022-11-15T01:37:27;13.00;;;8.63;;
22357;SDS011;11346;50.150;8.150;2022-11-15T01:39:54;16.43;;;9.57;;
22357;SDS011;11346;50.150;8.150;2022-11-15T01:42:21;18.83;;;9.10;;
22357;SDS011;11346;50.150;8.150;2022-11-15T01:44:50;14.87;;;9.10;;
22357;SDS011;11346;50.150;8.150;2022-11-15T01:47:19;14.90;;;9.63;;
22357;SDS011;11346;50.150;8.150;2022-11-15T01:49:49;17.23;;;9.70;;
22357;SDS011;11346;50.150;8.150;2022-11-15T01:52:18;15.87;;;9.73;;
22357;SDS011;11346;50.150;8.150;2022-11-15T01:54:46;19.67;;;9.97;;
22357;SDS011;11346;50.150;8.150;2022-11-15T01:57:13;15.50;;;8.93;;
22357;SDS011;11346;50.150;8.150;2022-11-15T01:59:42;16.33;;;9.73;;
22357;SDS011;11346;50.150;8.150;2022-11-15T02:02:11;18.97;;;9.17;;
22357;SDS011;11346;50.150;8.150;2022-11-15T02:04:40;17.20;;;10.00;;
22357;SDS011;11346;50.150;8.150;2022-11-15T02:07:08;15.33;;;9.43;;
22357;SDS011;11346;50.150;8.150;2022-11-15T02:09:36;15.27;;;9.23;;
22357;SDS011;11346;50.150;8.150;2022-11-15T02:12:03;16.47;;;9.87;;
22357;SDS011;11346;50.150;8.150;2022-11-15T02:14:30;20.03;;;9.90;;
22357;SDS011;11346;50.150;8.150;2022-11-15T02:16:58;15.17;;;9.80;;
22357;SDS011;11346;50.150;8.150;2022-11-15T02:19:36;18.43;;;9.80;;
22357;SDS011;11346;50.150;8.150;2022-11-15T02:22:10;16.27;;;9.53;;
22357;SDS011;11346;50.150;8.150;2022-11-15T02:24:45;13.13;;;8.33;;
22357;SDS011;11346;50.150;8.150;2022-11-15T02:27:27;15.53;;;8.13;;
22357;SDS011;11346;50.150;8.150;2022-11-15T02:30:00;9.00;;;6.70;;
22357;SDS011;11346;50.150;8.150;2022-11-15T02:32:33;8.83;;;6.57;;
22357;SDS011;11346;50.150;8.150;2022-11-15T02:35:02;16.30;;;6.20;;
22357;SDS011;11346;50.150;8.150;2022-11-15T02:37:35;6.37;;;4.40;;
22357;SDS011;11346;50.150;8.150;2022-11-15T02:40:06;6.97;;;4.97;;
22357;SDS011;11346;50.150;8.150;2022-11-15T02:42:35;10.57;;;7.00;;
22357;SDS011;11346;50.150;8.150;2022-11-15T02:45:21;10.77;;;5.83;;
22357;SDS011;11346;50.150;8.150;2022-11-15T02:47:51;11.10;;;6.30;;
22357;SDS011;11346;50.150;8.150;2022-11-15T02:50:21;7.13;;;5.70;;
22357;SDS011;11346;50.150;8.150;2022-11-15T02:52:50;10.10;;;6.00;;
22357;SDS011;11346;50.150;8.150;2022-11-15T02:55:27;8.93;;;6.20;;
22357;SDS011;11346;50.150;8.150;2022-11-15T02:57:58;8.37;;;5.40;;
22357;SDS011;11346;50.150;8.150;2022-11-15T03:00:29;10.50;;;5.83;;
22357;SDS011;11346;50.150;8.150;2022-11-15T03:03:11;9.27;;;5.70;;
22357;SDS011;11346;50.150;8.150;2022-11-15T03:05:41;8.93;;;5.90;;
22357;SDS011;11346;50.150;8.150;2022-11-15T03:08:13;8.07;;;5.10;;
22357;SDS011;11346;50.150;8.150;2022-11-15T03:10:46;9.47;;;5.27;;
22357;SDS011;11346;50.150;8.150;2022-11-15T03:13:19;7.63;;;4.80;;
22357;SDS011;11346;50.150;8.150;2022-11-15T03:15:49;8.43;;;5.57;;
22357;SDS011;11346;50.150;8.150;2022-11-15T03:18:21;11.67;;;7.00;;
22357;SDS011;11346;50.150;8.150;2022-11-15T03:20:50;14.40;;;8.73;;
22357;SDS011;11346;50.150;8.150;2022-11-15T03:23:17;15.67;;;9.30;;
22357;SDS011;11346;50.150;8.150;2022-11-15T03:25:45;16.97;;;8.50;;
22357;SDS011;11346;50.150;8.150;2022-11-15T03:28:18;16.23;;;9.67;;
22357;SDS011;11346;50.150;8.150;2022-11-15T03:30:46;12.30;;;8.80;;
22357;SDS011;11346;50.150;8.150;2022-11-15T03:33:14;16.33;;;9.00;;
22357;SDS011;11346;50.150;8.150;2022-11-15T03:35:44;18.93;;;10.67;;
22357;SDS011;11346;50.150;8.150;2022-11-15T03:38:13;18.67;;;9.00;;
22357;SDS011;11346;50.150;8.150;2022-11-15T03:40:42;18.33;;;9.70;;
22357;SDS011;11346;50.150;8.150;2022-11-15T03:43:10;15.83;;;10.23;;
22357;SDS011;11346;50.150;8.150;2022-11-15T03:45:43;19.20;;;10.90;;
22357;SDS011;11346;50.150;8.150;2022-11-15T03:48:13;19.80;;;11.33;;
22357;SDS011;11346;50.150;8.150;2022-11-15T03:50:41;17.50;;;10.37;;
22357;SDS011;11346;50.150;8.150;2022-11-15T03:53:10;15.87;;;10.10;;
22357;SDS011;11346;50.150;8.150;2022-11-15T03:55:37;18.70;;;10.50;;
22357;SDS011;11346;50.150;8.150;2022-11-15T03:58:04;19.57;;;10.77;;
22357;SDS011;11346;50.150;8.150;2022-11-15T04:00:31;19.73;;;11.00;;
22357;SDS011;11346;50.150;8.150;2022-11-15T04:02:59;15.27;;;10.23;;
22357;SDS011;11346;50.150;8.150;2022-11-15T04:05:26;17.30;;;11.13;;
22357;SDS011;11346;50.150;8.150;2022-11-15T04:07:53;19.10;;;10.83;;
22357;SDS011;11346;50.150;8.150;2022-11-15T04:10:21;17.03;;;11.07;;
22357;SDS011;11346;50.150;8.150;2022-11-15T04:12:48;20.50;;;11.13;;
22357;SDS011;11346;50.150;8.150;2022-11-15T04:15:16;18.57;;;10.57;;
22357;SDS011;11346;50.150;8.150;2022-11-15T04:17:44;20.57;;;9.93;;
22357;SDS011;11346;50.150;8.150;2022-11-15T04:20:12;17.93;;;10.03;;
22357;SDS011;11346;50.150;8.150;2022-11-15T04:22:58;15.60;;;10.40;;
22357;SDS011;11346;50.150;8.150;2022-11-15T04:25:44;18.43;;;10.80;;
22357;SDS011;11346;50.150;8.150;2022-11-15T04:28:12;20.27;;;10.67;;
22357;SDS011;11346;50.150;8.150;2022-11-15T04:30:39;19.50;;;9.90;;
22357;SDS011;11346;50.150;8.150;2022-11-15T04:33:06;14.87;;;10.30;;
22357;SDS011;11346;50.150;8.150;2022-11-15T04:35:33;17.37;;;10.80;;
22357;SDS011;11346;50.150;8.150;2022-11-15T04:38:00;17.87;;;10.97;;
22357;SDS011;11346;50.150;8.150;2022-11-15T04:40:27;19.87;;;11.37;;
22357;SDS011;11346;50.150;8.150;2022-11-15T04:42:55;20.67;;;10.87;;
22357;SDS011;11346;50.150;8.150;2022-11-15T04:45:22;18.27;;;10.00;;
22357;SDS011;11346;50.150;8.150;2022-11-15T04:47:49;17.70;;;10.43;;
22357;SDS011;11346;50.150;8.150;2022-11-15T04:50:16;19.00;;;10.53;;
22357;SDS011;11346;50.150;8.150;2022-11-15T04:52:48;18.37;;;10.33;;
22357;SDS011;11346;50.150;8.150;2022-11-15T04:55:16;16.20;;;9.80;;
22357;SDS011;11346;50.150;8.150;2022-11-15T04:57:43;15.60;;;9.77;;
22357;SDS011;11346;50.150;8.150;2022-11-15T05:00:13;17.80;;;10.03;;
22357;SDS011;11346;50.150;8.150;2022-11-15T05:02:42;17.47;;;10.13;;
22357;SDS011;11346;50.150;8.150;2022-11-15T05:05:27;16.80;;;10.33;;
22357;SDS011;11346;50.150;8.150;2022-11-15T05:07:54;18.20;;;11.23;;
22357;SDS011;11346;50.150;8.150;2022-11-15T05:10:21;17.33;;;9.60;;
22357;SDS011;11346;50.150;8.150;2022-11-15T05:12:48;19.93;;;10.00;;
22357;SDS011;11346;50.150;8.150;2022-11-15T05:15:16;20.53;;;10.17;;
22357;SDS011;11346;50.150;8.150;2022-11-15T05:17:44;14.97;;;9.77;;
22357;SDS011;11346;50.150;8.150;2022-11-15T05:20:11;16.90;;;10.07;;
22357;SDS011;11346;50.150;8.150;2022-11-15T05:22:38;19.17;;;11.37;;
22357;SDS011;11346;50.150;8.150;2022-11-15T05:25:06;15.70;;;10.70;;
22357;SDS011;11346;50.150;8.150;2022-11-15T05:27:33;19.17;;;10.70;;
22357;SDS011;11346;50.150;8.150;2022-11-15T05:30:00;16.90;;;10.47;;
22357;SDS011;11346;50.150;8.150;2022-11-15T05:32:28;16.77;;;10.67;;
22357;SDS011;11346;50.150;8.150;2022-11-15T05:34:56;21.07;;;10.77;;
22357;SDS011;11346;50.150;8.150;2022-11-15T05:37:23;18.10;;;9.73;;
22357;SDS011;11346;50.150;8.150;2022-11-15T05:39:50;15.23;;;8.13;;
22357;SDS011;11346;50.150;8.150;2022-11-15T05:42:17;13.00;;;9.50;;
22357;SDS011;11346;50.150;8.150;2022-11-15T05:44:45;15.70;;;9.53;;
22357;SDS011;11346;50.150;8.150;2022-11-15T05:47:15;14.87;;;9.80;;
22357;SDS011;11346;50.150;8.150;2022-11-15T05:49:44;17.63;;;9.77;;
22357;SDS011;11346;50.150;8.150;2022-11-15T05:52:13;13.37;;;8.73;;
22357;SDS011;11346;50.150;8.150;2022-11-15T05:54:41;15.03;;;8.50;;
22357;SDS011;11346;50.150;8.150;2022-11-15T05:57:09;15.13;;;7.73;;
22357;SDS011;11346;50.150;8.150;2022-11-15T05:59:36;16.97;;;8.63;;
22357;SDS011;11346;50.150;8.150;2022-11-15T06:02:05;13.37;;;9.37;;
22357;SDS011;11346;50.150;8.150;2022-11-15T06:04:32;12.70;;;8.40;;
22357;SDS011;11346;50.150;8.150;2022-11-15T06:07:00;12.83;;;8.57;;
22357;SDS011;11346;50.150;8.150;2022-11-15T06:09:28;10.23;;;8.00;;
22357;SDS011;11346;50.150;8.150;2022-11-15T06:11:55;11.80;;;7.30;;
22357;SDS011;11346;50.150;8.150;2022-11-15T06:14:22;21.47;;;12.83;;
22357;SDS011;11346;50.150;8.150;2022-11-15T06:16:49;43.57;;;25.60;;
22357;SDS011;11346;50.150;8.150;2022-11-15T06:19:16;18.63;;;10.67;;
22357;SDS011;11346;50.150;8.150;2022-11-15T06:21:43;13.23;;;8.33;;
22357;SDS011;11346;50.150;8.150;2022-11-15T06:24:11;14.87;;;8.00;;
22357;SDS011;11346;50.150;8.150;2022-11-15T06:26:38;13.67;;;7.63;;
22357;SDS011;11346;50.150;8.150;2022-11-15T06:29:05;13.97;;;8.10;;
22357;SDS011;11346;50.150;8.150;2022-11-15T06:31:33;11.27;;;7.60;;
22357;SDS011;11346;50.150;8.150;2022-11-15T06:34:00;14.73;;;7.93;;
22357;SDS011;11346;50.150;8.150;2022-11-15T06:36:27;12.23;;;7.43;;
22357;SDS011;11346;50.150;8.150;2022-11-15T06:38:54;13.77;;;7.47;;
22357;SDS011;11346;50.150;8.150;2022-11-15T06:41:22;13.17;;;8.60;;
22357;SDS011;11346;50.150;8.150;2022-11-15T06:43:49;11.03;;;7.47;;
22357;SDS011;11346;50.150;8.150;2022-11-15T06:46:16;11.40;;;8.07;;
22357;SDS011;11346;50.150;8.150;2022-11-15T06:48:43;16.07;;;8.97;;
22357;SDS011;11346;50.150;8.150;2022-11-15T06:51:10;16.27;;;9.00;;
22357;SDS011;11346;50.150;8.150;2022-11-15T06:53:37;18.60;;;10.43;;
22357;SDS011;11346;50.150;8.150;2022-11-15T06:56:05;17.43;;;10.50;;
22357;SDS011;11346;50.150;8.150;2022-11-15T06:58:35;15.67;;;9.70;;
22357;SDS011;11346;50.150;8.150;2022-11-15T07:01:03;15.07;;;8.83;;
22357;SDS011;11346;50.150;8.150;2022-11-15T07:03:30;19.57;;;8.77;;
22357;SDS011;11346;50.150;8.150;2022-11-15T07:05:57;12.83;;;8.70;;
22357;SDS011;11346;50.150;8.150;2022-11-15T07:08:26;15.30;;;8.83;;
22357;SDS011;11346;50.150;8.150;2022-11-15T07:10:54;22.23;;;9.20;;
22357;SDS011;11346;50.150;8.150;2022-11-15T07:13:23;16.57;;;9.17;;
22357;SDS011;11346;50.150;8.150;2022-11-15T07:15:52;13.40;;;9.07;;
22357;SDS011;11346;50.150;8.150;2022-11-15T07:18:19;14.47;;;9.07;;
22357;SDS011;11346;50.150;8.150;2022-11-15T07:20:47;20.90;;;8.97;;
22357;SDS011;11346;50.150;8.150;2022-11-15T07:23:14;16.13;;;9.40;;
22357;SDS011;11346;50.150;8.150;2022-11-15T07:25:41;14.93;;;9.43;;
22357;SDS011;11346;50.150;8.150;2022-11-15T07:28:08;18.47;;;9.27;;
22357;SDS011;11346;50.150;8.150;2022-11-15T07:30:35;13.80;;;9.27;;
22357;SDS011;11346;50.150;8.150;2022-11-15T07:33:03;16.13;;;9.20;;
22357;SDS011;11346;50.150;8.150;2022-11-15T07:35:30;14.53;;;8.83;;
22357;SDS011;11346;50.150;8.150;2022-11-15T07:37:57;14.77;;;8.23;;
22357;SDS011;11346;50.150;8.150;2022-11-15T07:40:25;10.47;;;7.17;;
22357;SDS011;11346;50.150;8.150;2022-11-15T07:42:52;12.50;;;8.00;;
22357;SDS011;11346;50.150;8.150;2022-11-15T07:45:25;12.20;;;7.43;;
22357;SDS011;11346;50.150;8.150;2022-11-15T07:47:52;8.70;;;7.00;;
22357;SDS011;11346;50.150;8.150;2022-11-15T07:50:22;7.03;;;5.37;;
22357;SDS011;11346;50.150;8.150;2022-11-15T07:52:53;9.50;;;5.93;;
22357;SDS011;11346;50.150;8.150;2022-11-15T07:55:20;7.20;;;4.60;;
22357;SDS011;11346;50.150;8.150;2022-11-15T07:57:47;7.57;;;4.70;;
22357;SDS011;11346;50.150;8.150;2022-11-15T08:00:14;7.37;;;4.87;;
22357;SDS011;11346;50.150;8.150;2022-11-15T08:02:41;5.97;;;4.07;;
22357;SDS011;11346;50.150;8.150;2022-11-15T08:05:09;5.40;;;4.40;;
22357;SDS011;11346;50.150;8.150;2022-11-15T08:07:37;5.83;;;4.40;;
22357;SDS011;11346;50.150;8.150;2022-11-15T08:10:05;7.17;;;3.63;;
22357;SDS011;11346;50.150;8.150;2022-11-15T08:12:32;8.00;;;4.50;;
22357;SDS011;11346;50.150;8.150;2022-11-15T08:15:00;7.40;;;4.30;;
22357;SDS011;11346;50.150;8.150;2022-11-15T08:17:27;4.83;;;3.60;;
22357;SDS011;11346;50.150;8.150;2022-11-15T08:19:57;7.50;;;4.30;;
22357;SDS011;11346;50.150;8.150;2022-11-15T08:22:24;4.93;;;4.20;;
22357;SDS011;11346;50.150;8.150;2022-11-15T08:24:53;6.73;;;4.80;;
22357;SDS011;11346;50.150;8.150;2022-11-15T08:27:20;8.13;;;3.57;;
22357;SDS011;11346;50.150;8.150;2022-11-15T08:29:48;9.37;;;4.43;;
22357;SDS011;11346;50.150;8.150;2022-11-15T08:32:15;7.80;;;4.17;;
22357;SDS011;11346;50.150;8.150;2022-11-15T08:34:42;5.83;;;4.37;;
22357;SDS011;11346;50.150;8.150;2022-11-15T08:37:09;5.60;;;4.10;;
22357;SDS011;11346;50.150;8.150;2022-11-15T08:39:36;7.20;;;4.20;;
22357;SDS011;11346;50.150;8.150;2022-11-15T08:42:05;6.33;;;4.20;;
22357;SDS011;11346;50.150;8.150;2022-11-15T08:44:32;5.80;;;3.27;;
22357;SDS011;11346;50.150;8.150;2022-11-15T08:46:59;8.23;;;4.20;;
22357;SDS011;11346;50.150;8.150;2022-11-15T08:49:26;4.77;;;4.13;;
22357;SDS011;11346;50.150;8.150;2022-11-15T08:51:53;6.60;;;5.10;;
22357;SDS011;11346;50.150;8.150;2022-11-15T08:54:20;5.33;;;3.83;;
22357;SDS011;11346;50.150;8.150;2022-11-15T08:56:47;11.97;;;4.73;;
22357;SDS011;11346;50.150;8.150;2022-11-15T08:59:15;6.60;;;4.40;;
22357;SDS011;11346;50.150;8.150;2022-11-15T09:01:42;5.93;;;4.67;;
22357;SDS011;11346;50.150;8.150;2022-11-15T09:04:09;5.67;;;4.43;;
22357;SDS011;11346;50.150;8.150;2022-11-15T09:06:36;5.63;;;4.50;;
22357;SDS011;11346;50.150;8.150;2022-11-15T09:09:03;5.90;;;4.60;;
22357;SDS011;11346;50.150;8.150;2022-11-15T09:11:30;5.30;;;4.37;;
22357;SDS011;11346;50.150;8.150;2022-11-15T09:13:57;4.20;;;3.80;;
22357;SDS011;11346;50.150;8.150;2022-11-15T09:16:26;7.67;;;5.30;;
22357;SDS011;11346;50.150;8.150;2022-11-15T09:18:53;10.83;;;6.00;;
22357;SDS011;11346;50.150;8.150;2022-11-15T09:21:20;5.27;;;4.20;;
22357;SDS011;11346;50.150;8.150;2022-11-15T09:23:49;5.63;;;4.47;;
22357;SDS011;11346;50.150;8.150;2022-11-15T09:26:17;8.77;;;3.50;;
22357;SDS011;11346;50.150;8.150;2022-11-15T09:28:44;4.20;;;3.80;;
22357;SDS011;11346;50.150;8.150;2022-11-15T09:31:11;6.20;;;3.83;;
22357;SDS011;11346;50.150;8.150;2022-11-15T09:33:39;4.83;;;4.00;;
22357;SDS011;11346;50.150;8.150;2022-11-15T09:36:07;5.07;;;3.67;;
22357;SDS011;11346;50.150;8.150;2022-11-15T09:38:34;8.17;;;3.40;;
22357;SDS011;11346;50.150;8.150;2022-11-15T09:43:54;4.03;;;3.50;;
22357;SDS011;11346;50.150;8.150;2022-11-15T09:46:28;6.50;;;4.83;;
22357;SDS011;11346;50.150;8.150;2022-11-15T09:49:00;8.87;;;5.90;;
22357;SDS011;11346;50.150;8.150;2022-11-15T09:51:28;9.63;;;5.90;;
22357;SDS011;11346;50.150;8.150;2022-11-15T09:53:59;8.87;;;6.07;;
22357;SDS011;11346;50.150;8.150;2022-11-15T09:56:29;11.93;;;6.77;;
22357;SDS011;11346;50.150;8.150;2022-11-15T09:58:59;7.50;;;5.80;;
22357;SDS011;11346;50.150;8.150;2022-11-15T10:01:31;10.07;;;6.20;;
22357;SDS011;11346;50.150;8.150;2022-11-15T10:04:02;10.23;;;6.10;;
22357;SDS011;11346;50.150;8.150;2022-11-15T10:06:29;7.87;;;6.07;;
22357;SDS011;11346;50.150;8.150;2022-11-15T10:08:59;10.20;;;6.33;;
22357;SDS011;11346;50.150;8.150;2022-11-15T10:11:28;9.87;;;6.43;;
22357;SDS011;11346;50.150;8.150;2022-11-15T10:13:56;11.70;;;6.53;;
22357;SDS011;11346;50.150;8.150;2022-11-15T10:19:14;8.03;;;5.87;;
22357;SDS011;11346;50.150;8.150;2022-11-15T10:21:46;7.03;;;5.80;;
22357;SDS011;11346;50.150;8.150;2022-11-15T10:24:18;7.90;;;5.67;;
22357;SDS011;11346;50.150;8.150;2022-11-15T10:26:46;10.13;;;5.67;;
22357;SDS011;11346;50.150;8.150;2022-11-15T10:29:17;10.20;;;5.97;;
22357;SDS011;11346;50.150;8.150;2022-11-15T10:31:45;10.70;;;5.80;;
22357;SDS011;11346;50.150;8.150;2022-11-15T10:34:14;7.93;;;4.90;;
22357;SDS011;11346;50.150;8.150;2022-11-15T10:36:44;7.57;;;5.50;;
22357;SDS011;11346;50.150;8.150;2022-11-15T10:39:11;8.87;;;5.87;;
22357;SDS011;11346;50.150;8.150;2022-11-15T10:41:39;9.57;;;4.80;;
22357;SDS011;11346;50.150;8.150;2022-11-15T10:44:11;9.03;;;5.27;;
22357;SDS011;11346;50.150;8.150;2022-11-15T10:46:39;8.63;;;5.23;;
22357;SDS011;11346;50.150;8.150;2022-11-15T10:49:12;10.87;;;5.10;;
22357;SDS011;11346;50.150;8.150;2022-11-15T10:51:41;12.53;;;6.00;;
22357;SDS011;11346;50.150;8.150;2022-11-15T10:54:09;8.07;;;5.40;;
22357;SDS011;11346;50.150;8.150;2022-11-15T10:56:38;8.13;;;5.80;;
22357;SDS011;11346;50.150;8.150;2022-11-15T10:59:07;7.20;;;5.80;;
22357;SDS011;11346;50.150;8.150;2022-11-15T11:01:44;6.67;;;5.10;;
22357;SDS011;11346;50.150;8.150;2022-11-15T11:04:12;8.73;;;6.03;;
22357;SDS011;11346;50.150;8.150;2022-11-15T11:06:49;10.27;;;5.70;;
22357;SDS011;11346;50.150;8.150;2022-11-15T11:09:38;15.33;;;5.73;;
22357;SDS011;11346;50.150;8.150;2022-11-15T11:12:09;7.00;;;4.90;;
22357;SDS011;11346;50.150;8.150;2022-11-15T11:14:37;7.03;;;5.60;;
22357;SDS011;11346;50.150;8.150;2022-11-15T11:17:05;10.30;;;6.03;;
22357;SDS011;11346;50.150;8.150;2022-11-15T11:19:43;8.73;;;6.43;;
22357;SDS011;11346;50.150;8.150;2022-11-15T11:22:15;10.40;;;6.60;;
22357;SDS011;11346;50.150;8.150;2022-11-15T11:24:44;9.47;;;5.77;;
22357;SDS011;11346;50.150;8.150;2022-11-15T11:27:18;7.97;;;5.90;;
22357;SDS011;11346;50.150;8.150;2022-11-15T11:29:52;7.87;;;5.80;;
22357;SDS011;11346;50.150;8.150;2022-11-15T11:32:25;7.63;;;5.07;;
22357;SDS011;11346;50.150;8.150;2022-11-15T11:34:58;10.77;;;5.83;;
22357;SDS011;11346;50.150;8.150;2022-11-15T11:37:31;11.77;;;6.77;;
22357;SDS011;11346;50.150;8.150;2022-11-15T11:40:03;9.50;;;6.60;;
22357;SDS011;11346;50.150;8.150;2022-11-15T11:42:35;7.13;;;5.53;;
22357;SDS011;11346;50.150;8.150;2022-11-15T11:45:06;10.40;;;6.40;;
22357;SDS011;11346;50.150;8.150;2022-11-15T11:47:39;8.23;;;6.17;;
22357;SDS011;11346;50.150;8.150;2022-11-15T11:50:10;9.03;;;6.83;;
22357;SDS011;11346;50.150;8.150;2022-11-15T11:52:41;12.97;;;7.80;;
22357;SDS011;11346;50.150;8.150;2022-11-15T11:55:12;11.37;;;8.90;;
22357;SDS011;11346;50.150;8.150;2022-11-15T11:57:41;11.83;;;7.70;;
22357;SDS011;11346;50.150;8.150;2022-11-15T12:00:15;11.93;;;8.60;;
22357;SDS011;11346;50.150;8.150;2022-11-15T12:02:43;12.93;;;8.63;;
22357;SDS011;11346;50.150;8.150;2022-11-15T12:05:13;13.47;;;9.97;;
22357;SDS011;11346;50.150;8.150;2022-11-15T12:07:44;11.90;;;8.80;;
22357;SDS011;11346;50.150;8.150;2022-11-15T12:10:15;19.83;;;10.13;;
22357;SDS011;11346;50.150;8.150;2022-11-15T12:12:44;12.73;;;9.47;;
22357;SDS011;11346;50.150;8.150;2022-11-15T12:15:15;12.83;;;9.07;;
22357;SDS011;11346;50.150;8.150;2022-11-15T12:17:42;13.80;;;8.33;;
22357;SDS011;11346;50.150;8.150;2022-11-15T12:20:14;10.43;;;6.60;;
22357;SDS011;11346;50.150;8.150;2022-11-15T12:22:42;9.17;;;7.27;;
22357;SDS011;11346;50.150;8.150;2022-11-15T12:25:16;12.77;;;7.40;;
22357;SDS011;11346;50.150;8.150;2022-11-15T12:27:45;5.80;;;4.37;;
22357;SDS011;11346;50.150;8.150;2022-11-15T12:30:14;11.37;;;7.00;;
22357;SDS011;11346;50.150;8.150;2022-11-15T12:32:48;11.87;;;6.60;;
22357;SDS011;11346;50.150;8.150;2022-11-15T12:35:24;9.10;;;6.20;;
22357;SDS011;11346;50.150;8.150;2022-11-15T12:37:52;6.30;;;5.00;;
22357;SDS011;11346;50.150;8.150;2022-11-15T12:40:30;12.47;;;7.90;;
22357;SDS011;11346;50.150;8.150;2022-11-15T12:43:01;14.27;;;7.83;;
22357;SDS011;11346;50.150;8.150;2022-11-15T12:45:30;11.50;;;7.23;;
22357;SDS011;11346;50.150;8.150;2022-11-15T12:48:21;16.63;;;8.10;;
22357;SDS011;11346;50.150;8.150;2022-11-15T12:50:59;14.00;;;9.57;;
22357;SDS011;11346;50.150;8.150;2022-11-15T12:53:27;14.10;;;9.57;;
22357;SDS011;11346;50.150;8.150;2022-11-15T12:58:41;14.73;;;9.50;;
22357;SDS011;11346;50.150;8.150;2022-11-15T13:01:09;12.93;;;8.13;;
22357;SDS011;11346;50.150;8.150;2022-11-15T13:03:36;14.00;;;9.30;;
22357;SDS011;11346;50.150;8.150;2022-11-15T13:06:40;16.17;;;9.57;;
22357;SDS011;11346;50.150;8.150;2022-11-15T13:11:53;12.00;;;8.80;;
22357;SDS011;11346;50.150;8.150;2022-11-15T13:14:40;14.83;;;9.97;;
22357;SDS011;11346;50.150;8.150;2022-11-15T13:17:25;17.20;;;10.30;;
22357;SDS011;11346;50.150;8.150;2022-11-15T13:19:53;15.47;;;9.37;;
22357;SDS011;11346;50.150;8.150;2022-11-15T13:22:23;13.13;;;9.00;;
22357;SDS011;11346;50.150;8.150;2022-11-15T13:25:14;15.23;;;9.77;;
22357;SDS011;11346;50.150;8.150;2022-11-15T13:27:44;15.20;;;10.20;;
22357;SDS011;11346;50.150;8.150;2022-11-15T13:30:23;12.97;;;9.20;;
22357;SDS011;11346;50.150;8.150;2022-11-15T13:32:50;14.30;;;9.37;;
22357;SDS011;11346;50.150;8.150;2022-11-15T13:35:19;18.67;;;9.20;;
22357;SDS011;11346;50.150;8.150;2022-11-15T13:37:48;14.87;;;9.90;;
22357;SDS011;11346;50.150;8.150;2022-11-15T13:40:18;16.93;;;9.50;;
22357;SDS011;11346;50.150;8.150;2022-11-15T13:42:46;16.33;;;8.67;;
22357;SDS011;11346;50.150;8.150;2022-11-15T13:45:15;13.33;;;9.43;;
22357;SDS011;11346;50.150;8.150;2022-11-15T13:47:43;16.03;;;9.40;;
22357;SDS011;11346;50.150;8.150;2022-11-15T13:50:10;16.30;;;8.93;;
22357;SDS011;11346;50.150;8.150;2022-11-15T13:52:38;11.80;;;8.50;;
22357;SDS011;11346;50.150;8.150;2022-11-15T13:55:10;13.67;;;8.57;;
22357;SDS011;11346;50.150;8.150;2022-11-15T13:57:40;14.27;;;9.40;;
22357;SDS011;11346;50.150;8.150;2022-11-15T14:00:23;16.90;;;9.23;;
22357;SDS011;11346;50.150;8.150;2022-11-15T14:02:51;14.03;;;9.33;;
22357;SDS011;11346;50.150;8.150;2022-11-15T14:05:19;13.93;;;8.13;;
22357;SDS011;11346;50.150;8.150;2022-11-15T14:07:52;16.77;;;9.83;;
22357;SDS011;11346;50.150;8.150;2022-11-15T14:10:25;12.03;;;8.93;;
22357;SDS011;11346;50.150;8.150;2022-11-15T14:12:54;16.43;;;8.97;;
22357;SDS011;11346;50.150;8.150;2022-11-15T14:15:28;15.00;;;8.97;;
22357;SDS011;11346;50.150;8.150;2022-11-15T14:17:55;14.47;;;8.60;;
22357;SDS011;11346;50.150;8.150;2022-11-15T14:20:26;11.57;;;9.13;;
22357;SDS011;11346;50.150;8.150;2022-11-15T14:22:56;12.87;;;9.17;;
22357;SDS011;11346;50.150;8.150;2022-11-15T14:25:23;13.40;;;9.70;;
22357;SDS011;11346;50.150;8.150;2022-11-15T14:28:12;15.70;;;10.03;;
22357;SDS011;11346;50.150;8.150;2022-11-15T14:30:39;15.67;;;9.97;;
22357;SDS011;11346;50.150;8.150;2022-11-15T14:33:17;15.43;;;9.10;;
22357;SDS011;11346;50.150;8.150;2022-11-15T14:35:44;10.30;;;7.00;;
22357;SDS011;11346;50.150;8.150;2022-11-15T14:38:11;13.20;;;9.00;;
22357;SDS011;11346;50.150;8.150;2022-11-15T14:40:41;13.43;;;8.23;;
22357;SDS011;11346;50.150;8.150;2022-11-15T14:43:09;14.30;;;8.07;;
22357;SDS011;11346;50.150;8.150;2022-11-15T14:45:37;10.10;;;7.50;;
22357;SDS011;11346;50.150;8.150;2022-11-15T14:48:05;10.97;;;8.00;;
22357;SDS011;11346;50.150;8.150;2022-11-15T14:50:32;10.60;;;7.70;;
22357;SDS011;11346;50.150;8.150;2022-11-15T14:53:00;10.87;;;6.47;;
22357;SDS011;11346;50.150;8.150;2022-11-15T14:55:27;10.37;;;8.00;;
22357;SDS011;11346;50.150;8.150;2022-11-15T14:57:56;14.10;;;6.87;;
22357;SDS011;11346;50.150;8.150;2022-11-15T15:00:24;11.23;;;7.90;;